createdAt,value
2017-04-02T00:00:15.967Z,731.42
2017-04-02T00:01:15.948Z,731.39
2017-04-02T00:02:15.931Z,731.35
2017-04-02T00:03:15.916Z,731.36
2017-04-02T00:04:15.896Z,731.42
2017-04-02T00:05:15.883Z,731.4
2017-04-02T00:06:15.864Z,731.41
2017-04-02T00:07:15.846Z,731.38
2017-04-02T00:08:15.828Z,731.4
2017-04-02T00:09:15.817Z,731.36
2017-04-02T00:10:15.795Z,731.37
2017-04-02T00:11:15.779Z,731.39
2017-04-02T00:12:15.762Z,731.36
2017-04-02T00:13:15.745Z,731.36
2017-04-02T00:14:15.729Z,731.38
2017-04-02T00:15:15.710Z,731.34
2017-04-02T00:16:15.694Z,731.35
2017-04-02T00:17:15.677Z,731.36
2017-04-02T00:18:15.667Z,731.31
2017-04-02T00:19:15.643Z,731.32
2017-04-02T00:20:15.628Z,731.25
2017-04-02T00:21:15.610Z,731.33
2017-04-02T00:22:15.632Z,731.3
2017-04-02T00:23:15.577Z,731.28
2017-04-02T00:24:15.761Z,731.25
2017-04-02T00:25:15.543Z,731.29
2017-04-02T00:26:15.526Z,731.29
2017-04-02T00:27:15.509Z,731.35
2017-04-02T00:28:15.492Z,731.29
2017-04-02T00:29:15.475Z,731.31
2017-04-02T00:30:15.457Z,731.31
2017-04-02T00:31:15.441Z,731.29
2017-04-02T00:32:15.423Z,731.28
2017-04-02T00:33:15.406Z,731.27
2017-04-02T00:34:15.390Z,731.3
2017-04-02T00:35:15.373Z,731.3
2017-04-02T00:36:15.357Z,731.28
2017-04-02T00:37:15.339Z,731.27
2017-04-02T00:38:15.322Z,731.27
2017-04-02T00:39:15.306Z,731.29
2017-04-02T00:40:15.289Z,731.28
2017-04-02T00:41:15.272Z,731.23
2017-04-02T00:42:15.255Z,731.28
2017-04-02T00:43:15.237Z,731.28
2017-04-02T00:44:15.220Z,731.24
2017-04-02T00:45:15.203Z,731.24
2017-04-02T00:46:15.186Z,731.24
2017-04-02T00:47:15.170Z,731.22
2017-04-02T00:48:15.152Z,731.22
2017-04-02T00:49:15.137Z,731.22
2017-04-02T00:50:15.119Z,731.25
2017-04-02T00:51:15.103Z,731.25
2017-04-02T00:52:15.085Z,731.23
2017-04-02T00:53:15.068Z,731.22
2017-04-02T00:54:15.052Z,731.21
2017-04-02T00:55:15.034Z,731.22
2017-04-02T00:56:15.017Z,731.22
2017-04-02T00:57:15.001Z,731.17
2017-04-02T00:58:14.984Z,731.19
2017-04-02T00:59:14.966Z,731.21
2017-04-02T01:00:14.950Z,731.17
2017-04-02T01:01:14.932Z,731.18
2017-04-02T01:03:14.899Z,731.22
2017-04-02T01:04:14.881Z,731.22
2017-04-02T01:05:14.866Z,731.21
2017-04-02T01:06:14.849Z,731.17
2017-04-02T01:07:14.831Z,731.19
2017-04-02T01:08:14.815Z,731.15
2017-04-02T01:09:14.798Z,731.14
2017-04-02T01:10:14.781Z,731.15
2017-04-02T01:11:14.763Z,731.18
2017-04-02T01:12:14.746Z,731.16
2017-04-02T01:13:14.730Z,731.14
2017-04-02T01:14:14.713Z,731.13
2017-04-02T01:15:14.697Z,731.15
2017-04-02T01:16:14.679Z,731.13
2017-04-02T01:17:14.662Z,731.13
2017-04-02T01:18:14.644Z,731.13
2017-04-02T01:19:14.628Z,731.18
2017-04-02T01:20:14.611Z,731.18
2017-04-02T01:21:14.594Z,731.14
2017-04-02T01:22:14.577Z,731.16
2017-04-02T01:23:14.561Z,731.17
2017-04-02T01:24:14.544Z,731.13
2017-04-02T01:25:14.527Z,731.1
2017-04-02T01:26:14.509Z,731.1
2017-04-02T01:27:14.493Z,731.11
2017-04-02T01:28:14.476Z,731.1
2017-04-02T01:29:14.459Z,731.13
2017-04-02T01:30:14.443Z,731.12
2017-04-02T01:31:14.426Z,731.09
2017-04-02T01:32:14.409Z,731.12
2017-04-02T01:33:14.391Z,731.11
2017-04-02T01:34:14.374Z,731.1
2017-04-02T01:35:14.357Z,731.07
2017-04-02T01:36:14.341Z,731.09
2017-04-02T01:37:14.322Z,731.11
2017-04-02T01:38:14.306Z,731.1
2017-04-02T01:39:14.288Z,731.16
2017-04-02T01:40:14.271Z,731.15
2017-04-02T01:41:14.253Z,731.16
2017-04-02T01:42:14.236Z,731.16
2017-04-02T01:43:14.219Z,731.15
2017-04-02T01:44:14.201Z,731.15
2017-04-02T01:45:14.185Z,731.15
2017-04-02T01:46:14.168Z,731.16
2017-04-02T01:47:14.150Z,731.11
2017-04-02T01:48:14.133Z,731.16
2017-04-02T01:49:14.115Z,731.14
2017-04-02T01:50:14.098Z,731.08
2017-04-02T01:51:14.082Z,731.12
2017-04-02T01:52:14.067Z,731.12
2017-04-02T01:53:14.047Z,731.12
2017-04-02T01:54:14.029Z,731.14
2017-04-02T01:55:14.012Z,731.09
2017-04-02T01:56:13.996Z,731.12
2017-04-02T01:57:13.979Z,731.11
2017-04-02T01:58:13.959Z,731.11
2017-04-02T01:59:13.944Z,731.1
2017-04-02T02:00:13.926Z,731.1
2017-04-02T02:01:13.908Z,731.13
2017-04-02T02:02:13.892Z,731.11
2017-04-02T02:03:13.875Z,731.11
2017-04-02T02:04:13.858Z,731.11
2017-04-02T02:05:13.840Z,731.14
2017-04-02T02:06:14.025Z,731.11
2017-04-02T02:07:13.806Z,731.14
2017-04-02T02:08:13.793Z,731.1
2017-04-02T02:09:13.771Z,731.1
2017-04-02T02:10:13.757Z,731.12
2017-04-02T02:11:13.738Z,731.14
2017-04-02T02:12:13.719Z,731.12
2017-04-02T02:13:13.702Z,731.18
2017-04-02T02:14:13.686Z,731.17
2017-04-02T02:15:13.670Z,731.12
2017-04-02T02:16:13.653Z,731.18
2017-04-02T02:17:13.635Z,731.17
2017-04-02T02:18:13.619Z,731.15
2017-04-02T02:19:13.600Z,731.16
2017-04-02T02:20:13.584Z,731.16
2017-04-02T02:21:13.567Z,731.17
2017-04-02T02:22:13.549Z,731.13
2017-04-02T02:23:13.532Z,731.17
2017-04-02T02:24:13.516Z,731.2
2017-04-02T02:25:13.498Z,731.19
2017-04-02T02:26:13.481Z,731.2
2017-04-02T02:27:13.464Z,731.15
2017-04-02T02:28:13.445Z,731.16
2017-04-02T02:29:13.429Z,731.15
2017-04-02T02:30:13.413Z,731.11
2017-04-02T02:31:13.394Z,731.14
2017-04-02T02:32:13.377Z,731.14
2017-04-02T02:33:13.359Z,731.14
2017-04-02T02:34:13.341Z,731.11
2017-04-02T02:35:13.326Z,731.13
2017-04-02T02:36:13.309Z,731.1
2017-04-02T02:37:13.291Z,731.13
2017-04-02T02:38:13.273Z,731.13
2017-04-02T02:39:13.255Z,731.12
2017-04-02T02:40:13.237Z,731.1
2017-04-02T02:41:13.222Z,731.16
2017-04-02T02:42:13.203Z,731.16
2017-04-02T02:43:13.186Z,731.17
2017-04-02T02:44:13.168Z,731.16
2017-04-02T02:45:13.151Z,731.16
2017-04-02T02:46:13.134Z,731.1
2017-04-02T02:47:13.117Z,731.14
2017-04-02T02:48:13.101Z,731.15
2017-04-02T02:49:13.081Z,731.18
2017-04-02T02:50:13.067Z,731.18
2017-04-02T02:51:13.048Z,731.17
2017-04-02T02:52:13.033Z,731.16
2017-04-02T02:53:13.014Z,731.19
2017-04-02T02:54:12.998Z,731.18
2017-04-02T02:55:12.980Z,731.23
2017-04-02T02:56:12.962Z,731.23
2017-04-02T02:57:12.945Z,731.19
2017-04-02T02:58:12.930Z,731.19
2017-04-02T02:59:12.915Z,731.23
2017-04-02T03:00:12.896Z,731.21
2017-04-02T03:01:12.878Z,731.21
2017-04-02T03:02:12.861Z,731.23
2017-04-02T03:03:12.844Z,731.24
2017-04-02T03:04:12.828Z,731.19
2017-04-02T03:05:12.810Z,731.21
2017-04-02T03:06:12.794Z,731.22
2017-04-02T03:07:12.777Z,731.22
2017-04-02T03:08:12.760Z,731.19
2017-04-02T03:09:12.742Z,731.22
2017-04-02T03:10:12.725Z,731.21
2017-04-02T03:11:12.707Z,731.22
2017-04-02T03:12:12.691Z,731.19
2017-04-02T03:13:12.674Z,731.21
2017-04-02T03:14:12.656Z,731.22
2017-04-02T03:15:12.638Z,731.27
2017-04-02T03:16:12.622Z,731.23
2017-04-02T03:17:12.604Z,731.22
2017-04-02T03:18:12.587Z,731.2
2017-04-02T03:19:12.571Z,731.2
2017-04-02T03:20:12.553Z,731.19
2017-04-02T03:21:12.537Z,731.22
2017-04-02T03:22:12.519Z,731.25
2017-04-02T03:23:12.502Z,731.21
2017-04-02T03:24:12.484Z,731.22
2017-04-02T03:25:12.467Z,731.25
2017-04-02T03:26:12.450Z,731.28
2017-04-02T03:27:12.432Z,731.25
2017-04-02T03:28:12.416Z,731.26
2017-04-02T03:29:12.398Z,731.24
2017-04-02T03:30:12.385Z,731.26
2017-04-02T03:31:12.365Z,731.28
2017-04-02T03:32:12.347Z,731.24
2017-04-02T03:33:12.328Z,731.25
2017-04-02T03:34:12.311Z,731.24
2017-04-02T03:35:12.295Z,731.23
2017-04-02T03:36:12.278Z,731.26
2017-04-02T03:37:12.258Z,731.25
2017-04-02T03:38:12.245Z,731.3
2017-04-02T03:39:12.225Z,731.33
2017-04-02T03:40:12.208Z,731.29
2017-04-02T03:41:12.190Z,731.32
2017-04-02T03:42:12.174Z,731.33
2017-04-02T03:43:12.156Z,731.28
2017-04-02T03:44:12.138Z,731.29
2017-04-02T03:45:12.122Z,731.33
2017-04-02T03:46:12.104Z,731.34
2017-04-02T03:47:12.086Z,731.34
2017-04-02T03:48:12.070Z,731.31
2017-04-02T03:49:12.052Z,731.29
2017-04-02T03:50:12.036Z,731.32
2017-04-02T03:51:12.018Z,731.32
2017-04-02T03:52:12.002Z,731.31
2017-04-02T03:53:11.984Z,731.32
2017-04-02T03:54:11.969Z,731.33
2017-04-02T03:55:11.951Z,731.35
2017-04-02T03:56:11.935Z,731.41
2017-04-02T03:57:11.918Z,731.38
2017-04-02T03:58:11.901Z,731.37
2017-04-02T03:59:11.885Z,731.42
2017-04-02T04:00:11.867Z,731.41
2017-04-02T04:01:11.852Z,731.43
2017-04-02T04:02:11.833Z,731.42
2017-04-02T04:03:11.817Z,731.41
2017-04-02T04:04:11.801Z,731.47
2017-04-02T04:05:11.784Z,731.44
2017-04-02T04:06:11.768Z,731.42
2017-04-02T04:07:11.751Z,731.45
2017-04-02T04:08:11.735Z,731.45
2017-04-02T04:09:11.717Z,731.46
2017-04-02T04:10:11.700Z,731.46
2017-04-02T04:11:11.684Z,731.5
2017-04-02T04:12:11.668Z,731.54
2017-04-02T04:13:11.651Z,731.52
2017-04-02T04:14:11.642Z,731.55
2017-04-02T04:15:11.617Z,731.51
2017-04-02T04:16:11.602Z,731.54
2017-04-02T04:17:11.583Z,731.52
2017-04-02T04:18:11.566Z,731.54
2017-04-02T04:19:11.550Z,731.52
2017-04-02T04:20:11.533Z,731.52
2017-04-02T04:21:11.516Z,731.51
2017-04-02T04:22:11.501Z,731.47
2017-04-02T04:23:11.483Z,731.53
2017-04-02T04:24:11.465Z,731.51
2017-04-02T04:25:11.447Z,731.55
2017-04-02T04:26:11.431Z,731.52
2017-04-02T04:27:11.415Z,731.54
2017-04-02T04:28:11.395Z,731.58
2017-04-02T04:29:11.380Z,731.54
2017-04-02T04:30:11.363Z,731.54
2017-04-02T04:31:11.345Z,731.54
2017-04-02T04:32:11.328Z,731.56
2017-04-02T04:33:11.312Z,731.52
2017-04-02T04:34:11.296Z,731.54
2017-04-02T04:35:11.276Z,731.51
2017-04-02T04:36:11.260Z,731.54
2017-04-02T04:37:11.242Z,731.58
2017-04-02T04:38:11.226Z,731.59
2017-04-02T04:39:11.210Z,731.59
2017-04-02T04:40:11.191Z,731.63
2017-04-02T04:41:11.174Z,731.61
2017-04-02T04:42:11.156Z,731.59
2017-04-02T04:43:11.139Z,731.62
2017-04-02T04:44:11.122Z,731.6
2017-04-02T04:45:11.106Z,731.63
2017-04-02T04:46:11.086Z,731.61
2017-04-02T04:47:11.071Z,731.65
2017-04-02T04:48:11.053Z,731.64
2017-04-02T04:49:11.035Z,731.66
2017-04-02T04:50:11.019Z,731.66
2017-04-02T04:51:11.001Z,731.62
2017-04-02T04:52:10.985Z,731.63
2017-04-02T04:53:10.967Z,731.62
2017-04-02T04:54:10.950Z,731.67
2017-04-02T04:55:10.933Z,731.63
2017-04-02T04:56:10.916Z,731.69
2017-04-02T04:57:10.898Z,731.64
2017-04-02T04:58:10.880Z,731.7
2017-04-02T04:59:10.864Z,731.71
2017-04-02T05:00:10.846Z,731.66
2017-04-02T05:01:10.829Z,731.7
2017-04-02T05:02:10.813Z,731.7
2017-04-02T05:03:10.795Z,731.73
2017-04-02T05:04:10.777Z,731.72
2017-04-02T05:05:10.760Z,731.72
2017-04-02T05:06:10.745Z,731.7
2017-04-02T05:07:10.728Z,731.74
2017-04-02T05:08:10.711Z,731.75
2017-04-02T05:09:10.695Z,731.78
2017-04-02T05:10:10.678Z,731.83
2017-04-02T05:11:10.661Z,731.83
2017-04-02T05:12:10.643Z,731.83
2017-04-02T05:13:10.626Z,731.83
2017-04-02T05:14:10.610Z,731.86
2017-04-02T05:15:10.594Z,731.85
2017-04-02T05:16:10.578Z,731.88
2017-04-02T05:17:10.561Z,731.91
2017-04-02T05:18:10.544Z,731.94
2017-04-02T05:19:10.528Z,731.95
2017-04-02T05:20:10.511Z,731.95
2017-04-02T05:21:10.494Z,731.95
2017-04-02T05:22:10.477Z,731.95
2017-04-02T05:23:10.465Z,732.04
2017-04-02T05:24:10.445Z,731.98
2017-04-02T05:25:10.429Z,731.99
2017-04-02T05:26:10.413Z,732.04
2017-04-02T05:27:10.396Z,732.04
2017-04-02T05:28:10.381Z,732.08
2017-04-02T05:29:10.364Z,732.03
2017-04-02T05:30:10.347Z,732.03
2017-04-02T05:31:10.330Z,732.03
2017-04-02T05:32:10.316Z,732.05
2017-04-02T05:33:10.298Z,732.08
2017-04-02T05:34:10.282Z,732.1
2017-04-02T05:35:10.266Z,732.09
2017-04-02T05:36:10.250Z,732.12
2017-04-02T05:37:10.232Z,732.09
2017-04-02T05:38:10.215Z,732.11
2017-04-02T05:39:10.198Z,732.13
2017-04-02T05:40:10.183Z,732.13
2017-04-02T05:41:10.165Z,732.21
2017-04-02T05:42:10.150Z,732.13
2017-04-02T05:43:10.134Z,732.17
2017-04-02T05:44:10.118Z,732.17
2017-04-02T05:45:10.102Z,732.17
2017-04-02T05:46:10.086Z,732.22
2017-04-02T05:47:10.071Z,732.16
2017-04-02T05:48:10.054Z,732.22
2017-04-02T05:49:10.039Z,732.25
2017-04-02T05:50:10.025Z,732.25
2017-04-02T05:51:10.009Z,732.26
2017-04-02T05:52:09.993Z,732.3
2017-04-02T05:53:09.979Z,732.3
2017-04-02T05:54:09.965Z,732.28
2017-04-02T05:55:09.949Z,732.3
2017-04-02T05:56:09.935Z,732.3
2017-04-02T05:57:09.920Z,732.31
2017-04-02T05:58:09.905Z,732.31
2017-04-02T05:59:09.891Z,732.33
2017-04-02T06:00:09.876Z,732.3
2017-04-02T06:01:09.863Z,732.29
2017-04-02T06:02:09.849Z,732.29
2017-04-02T06:03:09.834Z,732.32
2017-04-02T06:04:09.820Z,732.31
2017-04-02T06:05:09.809Z,732.3
2017-04-02T06:06:09.793Z,732.29
2017-04-02T06:07:09.780Z,732.29
2017-04-02T06:08:09.766Z,732.31
2017-04-02T06:09:09.754Z,732.31
2017-04-02T06:10:09.740Z,732.3
2017-04-02T06:11:09.725Z,732.31
2017-04-02T06:12:09.713Z,732.33
2017-04-02T06:13:09.699Z,732.33
2017-04-02T06:14:09.688Z,732.35
2017-04-02T06:15:09.675Z,732.33
2017-04-02T06:16:09.662Z,732.37
2017-04-02T06:17:09.649Z,732.42
2017-04-02T06:18:09.636Z,732.37
2017-04-02T06:19:09.622Z,732.35
2017-04-02T06:20:09.610Z,732.36
2017-04-02T06:21:09.598Z,732.33
2017-04-02T06:22:09.586Z,732.31
2017-04-02T06:23:09.572Z,732.35
2017-04-02T06:24:09.559Z,732.38
2017-04-02T06:25:09.548Z,732.37
2017-04-02T06:26:09.535Z,732.37
2017-04-02T06:27:09.522Z,732.39
2017-04-02T06:28:09.508Z,732.4
2017-04-02T06:29:09.496Z,732.42
2017-04-02T06:30:09.481Z,732.45
2017-04-02T06:31:09.471Z,732.45
2017-04-02T06:32:09.454Z,732.46
2017-04-02T06:33:09.442Z,732.51
2017-04-02T06:34:09.428Z,732.5
2017-04-02T06:35:09.414Z,732.5
2017-04-02T06:36:09.403Z,732.47
2017-04-02T06:37:09.389Z,732.48
2017-04-02T06:38:09.375Z,732.48
2017-04-02T06:39:09.359Z,732.48
2017-04-02T06:40:09.348Z,732.44
2017-04-02T06:41:09.334Z,732.43
2017-04-02T06:42:09.320Z,732.45
2017-04-02T06:43:09.306Z,732.46
2017-04-02T06:44:09.293Z,732.47
2017-04-02T06:45:09.280Z,732.49
2017-04-02T06:46:09.266Z,732.5
2017-04-02T06:47:09.251Z,732.5
2017-04-02T06:48:09.238Z,732.47
2017-04-02T06:49:09.224Z,732.54
2017-04-02T06:50:09.209Z,732.57
2017-04-02T06:51:09.194Z,732.62
2017-04-02T06:52:09.191Z,732.55
2017-04-02T06:53:09.167Z,732.56
2017-04-02T06:54:09.153Z,732.55
2017-04-02T06:55:09.139Z,732.56
2017-04-02T06:56:09.126Z,732.52
2017-04-02T06:57:09.111Z,732.47
2017-04-02T06:58:09.099Z,732.48
2017-04-02T06:59:09.082Z,732.52
2017-04-02T07:00:09.069Z,732.55
2017-04-02T07:01:09.054Z,732.54
2017-04-02T07:02:09.040Z,732.56
2017-04-02T07:03:09.027Z,732.59
2017-04-02T07:04:09.014Z,732.55
2017-04-02T07:05:08.998Z,732.59
2017-04-02T07:06:08.985Z,732.55
2017-04-02T07:07:08.971Z,732.57
2017-04-02T07:08:08.956Z,732.59
2017-04-02T07:09:08.943Z,732.59
2017-04-02T07:10:08.929Z,732.61
2017-04-02T07:11:08.915Z,732.58
2017-04-02T07:12:08.900Z,732.58
2017-04-02T07:13:08.886Z,732.63
2017-04-02T07:14:08.873Z,732.68
2017-04-02T07:15:08.858Z,732.66
2017-04-02T07:16:08.843Z,732.7
2017-04-02T07:17:08.831Z,732.67
2017-04-02T07:18:08.818Z,732.72
2017-04-02T07:19:08.804Z,732.75
2017-04-02T07:20:08.789Z,732.76
2017-04-02T07:21:08.777Z,732.75
2017-04-02T07:22:08.764Z,732.75
2017-04-02T07:23:08.749Z,732.77
2017-04-02T07:24:08.737Z,732.75
2017-04-02T07:25:08.721Z,732.73
2017-04-02T07:26:08.708Z,732.76
2017-04-02T07:27:08.693Z,732.74
2017-04-02T07:28:08.681Z,732.8
2017-04-02T07:29:08.668Z,732.82
2017-04-02T07:30:08.654Z,732.8
2017-04-02T07:31:08.640Z,732.78
2017-04-02T07:32:08.627Z,732.82
2017-04-02T07:33:08.614Z,732.81
2017-04-02T07:34:08.600Z,732.8
2017-04-02T07:35:08.623Z,732.81
2017-04-02T07:36:08.574Z,732.85
2017-04-02T07:37:08.560Z,732.86
2017-04-02T07:38:08.546Z,732.87
2017-04-02T07:39:08.533Z,732.86
2017-04-02T07:40:08.520Z,732.89
2017-04-02T07:41:08.507Z,732.9
2017-04-02T07:42:08.493Z,732.9
2017-04-02T07:43:08.480Z,732.93
2017-04-02T07:44:08.466Z,732.85
2017-04-02T07:45:08.454Z,732.89
2017-04-02T07:46:08.441Z,732.85
2017-04-02T07:47:08.426Z,732.89
2017-04-02T07:48:08.414Z,732.92
2017-04-02T07:49:08.401Z,732.87
2017-04-02T07:50:08.388Z,732.89
2017-04-02T07:51:08.375Z,732.9
2017-04-02T07:52:08.361Z,732.92
2017-04-02T07:53:08.348Z,732.95
2017-04-02T07:54:08.336Z,732.95
2017-04-02T07:55:08.324Z,732.96
2017-04-02T07:56:08.312Z,732.99
2017-04-02T07:57:08.299Z,732.98
2017-04-02T07:58:08.287Z,733.03
2017-04-02T07:59:08.272Z,733.02
2017-04-02T08:00:08.260Z,733.05
2017-04-02T08:01:08.250Z,733.06
2017-04-02T08:02:08.237Z,733.04
2017-04-02T08:03:08.223Z,733.06
2017-04-02T08:04:08.211Z,733.04
2017-04-02T08:05:08.200Z,733.08
2017-04-02T08:06:08.188Z,733.15
2017-04-02T08:07:08.176Z,733.1
2017-04-02T08:08:08.164Z,733.14
2017-04-02T08:09:08.154Z,733.09
2017-04-02T08:10:08.141Z,733.06
2017-04-02T08:11:08.131Z,733.11
2017-04-02T08:12:08.120Z,733.1
2017-04-02T08:13:08.109Z,733.19
2017-04-02T08:14:08.096Z,733.23
2017-04-02T08:15:08.085Z,733.17
2017-04-02T08:16:08.075Z,733.21
2017-04-02T08:17:08.065Z,733.24
2017-04-02T08:18:08.051Z,733.22
2017-04-02T08:19:08.041Z,733.26
2017-04-02T08:20:08.032Z,733.3
2017-04-02T08:21:08.023Z,733.25
2017-04-02T08:22:08.009Z,733.25
2017-04-02T08:23:08.000Z,733.27
2017-04-02T08:24:07.988Z,733.33
2017-04-02T08:25:07.977Z,733.36
2017-04-02T08:26:07.968Z,733.33
2017-04-02T08:27:07.957Z,733.33
2017-04-02T08:28:07.948Z,733.32
2017-04-02T08:29:07.935Z,733.35
2017-04-02T08:30:07.927Z,733.34
2017-04-02T08:31:07.918Z,733.41
2017-04-02T08:32:07.908Z,733.35
2017-04-02T08:33:07.900Z,733.34
2017-04-02T08:34:07.889Z,733.31
2017-04-02T08:35:07.880Z,733.3
2017-04-02T08:36:07.870Z,733.39
2017-04-02T08:37:07.860Z,733.44
2017-04-02T08:38:07.850Z,733.38
2017-04-02T08:39:07.840Z,733.38
2017-04-02T08:40:07.829Z,733.42
2017-04-02T08:41:07.821Z,733.47
2017-04-02T08:42:07.811Z,733.45
2017-04-02T08:43:07.800Z,733.46
2017-04-02T08:44:07.789Z,733.49
2017-04-02T08:45:07.780Z,733.5
2017-04-02T08:46:07.771Z,733.51
2017-04-02T08:47:07.760Z,733.48
2017-04-02T08:48:07.750Z,733.49
2017-04-02T08:49:07.739Z,733.46
2017-04-02T08:50:07.728Z,733.46
2017-04-02T08:51:07.718Z,733.55
2017-04-02T08:52:07.707Z,733.53
2017-04-02T08:53:07.698Z,733.54
2017-04-02T08:54:07.686Z,733.55
2017-04-02T08:55:07.675Z,733.5
2017-04-02T08:56:07.666Z,733.56
2017-04-02T08:57:07.656Z,733.53
2017-04-02T08:58:07.646Z,733.53
2017-04-02T08:59:07.636Z,733.53
2017-04-02T09:00:07.623Z,733.53
2017-04-02T09:01:07.615Z,733.54
2017-04-02T09:02:07.604Z,733.51
2017-04-02T09:03:07.591Z,733.49
2017-04-02T09:04:07.582Z,733.56
2017-04-02T09:05:07.569Z,733.56
2017-04-02T09:06:07.558Z,733.58
2017-04-02T09:07:07.548Z,733.64
2017-04-02T09:08:07.536Z,733.67
2017-04-02T09:09:07.525Z,733.6
2017-04-02T09:10:07.515Z,733.62
2017-04-02T09:11:07.503Z,733.57
2017-04-02T09:12:07.494Z,733.59
2017-04-02T09:13:07.482Z,733.63
2017-04-02T09:14:07.471Z,733.58
2017-04-02T09:15:07.460Z,733.52
2017-04-02T09:16:07.447Z,733.55
2017-04-02T09:17:07.438Z,733.6
2017-04-02T09:18:07.425Z,733.64
2017-04-02T09:19:07.413Z,733.68
2017-04-02T09:20:07.401Z,733.65
2017-04-02T09:21:07.388Z,733.7
2017-04-02T09:22:07.377Z,733.67
2017-04-02T09:23:07.366Z,733.65
2017-04-02T09:24:07.352Z,733.62
2017-04-02T09:25:07.380Z,733.6
2017-04-02T09:26:07.330Z,733.59
2017-04-02T09:27:07.316Z,733.61
2017-04-02T09:28:07.306Z,733.63
2017-04-02T09:29:07.293Z,733.7
2017-04-02T09:30:07.280Z,733.77
2017-04-02T09:31:07.269Z,733.74
2017-04-02T09:32:07.257Z,733.72
2017-04-02T09:33:07.245Z,733.71
2017-04-02T09:34:07.231Z,733.73
2017-04-02T09:35:07.220Z,733.66
2017-04-02T09:36:07.208Z,733.7
2017-04-02T09:37:07.196Z,733.7
2017-04-02T09:38:07.183Z,733.66
2017-04-02T09:39:07.170Z,733.69
2017-04-02T09:40:07.159Z,733.71
2017-04-02T09:41:07.147Z,733.69
2017-04-02T09:42:07.133Z,733.68
2017-04-02T09:43:07.121Z,733.69
2017-04-02T09:44:07.110Z,733.67
2017-04-02T09:45:07.096Z,733.7
2017-04-02T09:46:07.085Z,733.64
2017-04-02T09:47:07.072Z,733.64
2017-04-02T09:48:07.058Z,733.63
2017-04-02T09:49:07.045Z,733.68
2017-04-02T09:50:07.034Z,733.65
2017-04-02T09:51:07.019Z,733.68
2017-04-02T09:52:07.006Z,733.72
2017-04-02T09:53:06.994Z,733.71
2017-04-02T09:54:06.981Z,733.75
2017-04-02T09:55:06.968Z,733.77
2017-04-02T09:56:06.953Z,733.73
2017-04-02T09:57:06.940Z,733.74
2017-04-02T09:58:06.929Z,733.78
2017-04-02T09:59:06.915Z,733.78
2017-04-02T10:00:06.902Z,733.74
2017-04-02T10:01:06.888Z,733.8
2017-04-02T10:02:06.875Z,733.86
2017-04-02T10:03:06.862Z,733.89
2017-04-02T10:04:06.848Z,733.81
2017-04-02T10:05:06.835Z,733.85
2017-04-02T10:06:06.820Z,733.81
2017-04-02T10:07:06.806Z,733.79
2017-04-02T10:08:06.794Z,733.78
2017-04-02T10:09:06.781Z,733.85
2017-04-02T10:10:06.768Z,733.88
2017-04-02T10:11:06.754Z,733.81
2017-04-02T10:12:06.740Z,733.85
2017-04-02T10:13:06.726Z,733.83
2017-04-02T10:14:06.713Z,733.87
2017-04-02T10:15:06.702Z,733.84
2017-04-02T10:16:06.687Z,733.85
2017-04-02T10:17:06.676Z,733.83
2017-04-02T10:18:06.661Z,733.85
2017-04-02T10:19:06.649Z,733.87
2017-04-02T10:20:06.635Z,733.85
2017-04-02T10:21:06.623Z,733.81
2017-04-02T10:22:06.609Z,733.88
2017-04-02T10:23:06.596Z,733.81
2017-04-02T10:24:06.583Z,733.86
2017-04-02T10:25:06.571Z,733.91
2017-04-02T10:26:06.559Z,733.9
2017-04-02T10:27:06.545Z,733.9
2017-04-02T10:28:06.535Z,733.88
2017-04-02T10:29:06.522Z,733.87
2017-04-02T10:30:06.509Z,733.87
2017-04-02T10:31:06.498Z,733.9
2017-04-02T10:32:06.486Z,733.87
2017-04-02T10:33:06.474Z,733.87
2017-04-02T10:34:06.466Z,733.88
2017-04-02T10:35:06.450Z,733.83
2017-04-02T10:36:06.440Z,733.86
2017-04-02T10:37:06.426Z,733.88
2017-04-02T10:38:06.415Z,733.91
2017-04-02T10:39:06.405Z,733.89
2017-04-02T10:40:06.392Z,733.85
2017-04-02T10:41:06.382Z,733.9
2017-04-02T10:42:06.370Z,733.9
2017-04-02T10:43:06.359Z,733.94
2017-04-02T10:44:06.346Z,733.91
2017-04-02T10:45:06.335Z,733.93
2017-04-02T10:46:06.324Z,733.91
2017-04-02T10:47:06.312Z,733.93
2017-04-02T10:48:06.301Z,733.92
2017-04-02T10:49:06.290Z,733.88
2017-04-02T10:50:06.278Z,733.89
2017-04-02T10:51:06.267Z,733.91
2017-04-02T10:52:06.257Z,733.88
2017-04-02T10:53:06.247Z,733.9
2017-04-02T10:54:06.236Z,733.89
2017-04-02T10:55:06.224Z,733.95
2017-04-02T10:56:06.215Z,733.93
2017-04-02T10:57:06.205Z,733.97
2017-04-02T10:58:06.192Z,733.97
2017-04-02T10:59:06.183Z,734.01
2017-04-02T11:00:06.173Z,733.94
2017-04-02T11:01:06.163Z,733.96
2017-04-02T11:02:06.151Z,734
2017-04-02T11:03:06.143Z,734
2017-04-02T11:04:06.132Z,733.96
2017-04-02T11:05:06.124Z,733.92
2017-04-02T11:06:06.112Z,733.91
2017-04-02T11:07:06.104Z,733.94
2017-04-02T11:08:06.091Z,733.93
2017-04-02T11:09:06.080Z,733.89
2017-04-02T11:10:06.071Z,733.95
2017-04-02T11:11:06.060Z,733.96
2017-04-02T11:12:06.050Z,733.89
2017-04-02T11:13:06.038Z,733.91
2017-04-02T11:14:06.030Z,733.92
2017-04-02T11:15:06.016Z,733.93
2017-04-02T11:16:06.005Z,733.91
2017-04-02T11:17:05.993Z,733.94
2017-04-02T11:18:05.982Z,733.95
2017-04-02T11:19:05.972Z,733.97
2017-04-02T11:20:05.959Z,733.96
2017-04-02T11:21:05.948Z,733.96
2017-04-02T11:22:05.937Z,733.99
2017-04-02T11:23:05.926Z,733.96
2017-04-02T11:24:05.913Z,733.97
2017-04-02T11:25:05.903Z,734.02
2017-04-02T11:26:05.893Z,734.01
2017-04-02T11:27:05.882Z,734.03
2017-04-02T11:28:05.870Z,734.01
2017-04-02T11:29:05.860Z,734.07
2017-04-02T11:30:05.848Z,734.05
2017-04-02T11:31:05.839Z,734.07
2017-04-02T11:32:05.828Z,734.06
2017-04-02T11:33:05.817Z,734.09
2017-04-02T11:34:05.807Z,734.09
2017-04-02T11:35:05.798Z,734.09
2017-04-02T11:36:05.787Z,734.09
2017-04-02T11:37:05.779Z,734.07
2017-04-02T11:38:05.769Z,734.07
2017-04-02T11:39:05.760Z,734.05
2017-04-02T11:40:05.749Z,734.04
2017-04-02T11:41:05.741Z,734.04
2017-04-02T11:42:05.731Z,734.05
2017-04-02T11:43:05.723Z,734.06
2017-04-02T11:44:05.714Z,734.05
2017-04-02T11:45:05.708Z,733.99
2017-04-02T11:46:05.698Z,734.02
2017-04-02T11:47:05.689Z,734.02
2017-04-02T11:48:05.685Z,734.01
2017-04-02T11:49:05.673Z,734.03
2017-04-02T11:50:05.664Z,734
2017-04-02T11:51:05.656Z,734.05
2017-04-02T11:52:05.647Z,734.05
2017-04-02T11:53:05.637Z,734.07
2017-04-02T11:54:05.628Z,734.06
2017-04-02T11:55:05.621Z,734.06
2017-04-02T11:56:05.611Z,734.07
2017-04-02T11:57:05.602Z,734.06
2017-04-02T11:58:05.594Z,734.07
2017-04-02T11:59:05.584Z,734.09
2017-04-02T12:00:05.576Z,734.02
2017-04-02T12:01:05.566Z,734.1
2017-04-02T12:02:05.556Z,734.09
2017-04-02T12:03:05.550Z,734.09
2017-04-02T12:04:05.539Z,734.11
2017-04-02T12:05:05.532Z,734.1
2017-04-02T12:06:05.524Z,734.09
2017-04-02T12:07:05.516Z,733.94
2017-04-02T12:08:05.507Z,734.03
2017-04-02T12:09:05.499Z,734.08
2017-04-02T12:10:05.490Z,734.03
2017-04-02T12:11:05.481Z,734.07
2017-04-02T12:12:05.472Z,734.06
2017-04-02T12:13:05.464Z,734.1
2017-04-02T12:14:05.455Z,734.08
2017-04-02T12:15:05.446Z,734.09
2017-04-02T12:16:05.437Z,734.05
2017-04-02T12:17:05.429Z,734.01
2017-04-02T12:18:05.419Z,734.03
2017-04-02T12:19:05.411Z,734.07
2017-04-02T12:20:05.401Z,734.03
2017-04-02T12:21:05.394Z,734.11
2017-04-02T12:22:05.385Z,734.02
2017-04-02T12:23:05.376Z,733.99
2017-04-02T12:24:05.367Z,734.14
2017-04-02T12:25:05.358Z,734.03
2017-04-02T12:26:05.350Z,734.08
2017-04-02T12:27:05.339Z,734.18
2017-04-02T12:28:05.332Z,734.23
2017-04-02T12:29:05.323Z,734.16
2017-04-02T12:30:05.314Z,734.16
2017-04-02T12:31:05.306Z,734.16
2017-04-02T12:32:05.300Z,734.1